Shenandoah, IA

11:08 PM CST on December 10, 2016 (GMT -0600)
Shenandoah Municipal

Weather History for KSDA - June, 2013

Change the Weather History Date:

Sunday, June 23, 2013

  Actual Average Record
Temperature  
Mean Temperature 72 °F -  
Max Temperature 82 °F 85 °F 100 °F (1988)
Min Temperature 62 °F 63 °F 50 °F (1958)
Cooling Degree Days 7    
Growing Degree Days 22 (Base 50)    
Moisture  
Dew Point 66 °F    
Average Humidity 73    
Maximum Humidity 88    
Minimum Humidity 61    
Precipitation  
Precipitation 0.77 in - - ()
Sea Level Pressure  
Sea Level Pressure 29.88 in    
Wind  
Wind Speed 12 mph (SSE)    
Max Wind Speed 22 mph    
Max Gust Speed 32 mph    
Visibility 10 miles    
Events Rain    
Averages and records for this station are not official NWS values.
T = Trace of Precipitation, MM = Missing Value Source: NWS Daily Summary

Daily Weather History Graph

Daily Weather History Graph

Search for Another Location

Airport or City:

Trip Planner

Search our weather history database for the weather conditions in past years. The results will help you decide how hot, cold, wet, or windy it might be!

Date:

Astronomy

Jun. 23, 2013 Rise Set
Actual Time 5:51 AM CDT 8:56 PM CDT
Civil Twilight 5:17 AM CDT 9:30 PM CDT
Nautical Twilight 4:34 AM CDT 10:12 PM CDT
Astronomical Twilight 3:44 AM CDT 11:03 PM CDT
Moon 9:09 PM CDT (6/23) 6:09 AM CDT (6/23)
Length of Visible Light 16h 12m
Length of Day
15h 05m
Full, 100% of the Moon is Illuminated
Jun 23
Full
Jun 29
Last Quarter
Jul 8
New
Jul 15
First Quarter
Jul 22
Full

Hourly Weather History & Observations

Time (CDT) Temp. Heat Index Dew Point Humidity Pressure Visibility Wind Dir Wind Speed Gust Speed Precip Events Conditions
12:15 AM 80.6 °F 82.7 °F 66.2 °F 61% 29.87 in 10.0 mi South 15.0 mph 20.7 mph N/A   Clear
12:35 AM 80.6 °F 82.7 °F 66.2 °F 61% 29.86 in 10.0 mi South 16.1 mph - N/A   Clear
12:55 AM 80.6 °F 82.7 °F 66.2 °F 61% 29.84 in 10.0 mi South 15.0 mph 23.0 mph N/A   Scattered Clouds
1:15 AM 80.6 °F 82.7 °F 66.2 °F 61% 29.83 in 10.0 mi South 21.9 mph 26.5 mph N/A   Scattered Clouds
1:35 AM 80.6 °F 82.7 °F 66.2 °F 61% 29.83 in 10.0 mi South 18.4 mph 26.5 mph N/A   Scattered Clouds
1:55 AM 80.6 °F 82.7 °F 66.2 °F 61% 29.84 in 10.0 mi South 15.0 mph 23.0 mph N/A   Scattered Clouds
2:15 AM 78.8 °F - 66.2 °F 65% 29.84 in 10.0 mi South 16.1 mph 23.0 mph N/A   Scattered Clouds
2:35 AM 78.8 °F - 66.2 °F 65% 29.84 in 10.0 mi South 16.1 mph 26.5 mph N/A   Scattered Clouds
2:55 AM 78.8 °F - 66.2 °F 65% 29.84 in 10.0 mi South 19.6 mph 24.2 mph N/A   Scattered Clouds
3:15 AM 78.8 °F - 66.2 °F 65% 29.83 in 10.0 mi South 18.4 mph 23.0 mph N/A   Scattered Clouds
3:35 AM 78.8 °F - 66.2 °F 65% 29.83 in 10.0 mi South 18.4 mph 24.2 mph N/A   Clear
3:55 AM 78.8 °F - 66.2 °F 65% 29.82 in 10.0 mi South 16.1 mph 24.2 mph N/A   Scattered Clouds
4:15 AM 78.8 °F - 66.2 °F 65% 29.83 in 10.0 mi South 17.3 mph 23.0 mph N/A   Scattered Clouds
4:35 AM 78.8 °F - 66.2 °F 65% 29.82 in 10.0 mi South 16.1 mph 20.7 mph N/A   Clear
4:55 AM 78.8 °F - 66.2 °F 65% 29.81 in 10.0 mi South 17.3 mph - N/A   Clear
5:15 AM 78.8 °F - 66.2 °F 65% 29.82 in 10.0 mi South 15.0 mph 24.2 mph N/A   Clear
5:35 AM 78.8 °F - 66.2 °F 65% 29.82 in 10.0 mi South 13.8 mph 21.9 mph N/A   Scattered Clouds
5:55 AM 78.8 °F - 66.2 °F 65% 29.88 in 10.0 mi West 11.5 mph 18.4 mph N/A   Mostly Cloudy
6:15 AM 75.2 °F - 64.4 °F 69% 29.90 in 10.0 mi NW 21.9 mph 28.8 mph N/A   Overcast
6:35 AM 68.0 °F - 60.8 °F 78% 29.92 in 7.0 mi NNE 19.6 mph 32.2 mph N/A Rain Rain
6:55 AM 64.4 °F - 60.8 °F 88% 29.97 in 7.0 mi North 13.8 mph 26.5 mph 0.07 in Rain Heavy Rain
7:15 AM 64.4 °F - 59.0 °F 83% 30.00 in 4.0 mi NE 15.0 mph 25.3 mph 0.44 in Rain Heavy Rain
7:35 AM 64.4 °F - 59.0 °F 83% 29.94 in 10.0 mi NE 13.8 mph 18.4 mph 0.59 in Rain Heavy Rain
7:55 AM 64.4 °F - 59.0 °F 83% 29.96 in 10.0 mi East 18.4 mph 21.9 mph 0.62 in Rain Light Rain
8:15 AM 62.6 °F - 57.2 °F 82% 29.94 in 10.0 mi East 11.5 mph - 0.03 in Rain Rain
8:35 AM 64.4 °F - 59.0 °F 83% 29.86 in 10.0 mi SE 21.9 mph 26.5 mph 0.06 in Rain Light Rain
8:55 AM 64.4 °F - 59.0 °F 83% 29.85 in 7.0 mi East 19.6 mph 31.1 mph 0.07 in Rain Light Rain
9:15 AM 64.4 °F - 59.0 °F 83% 29.85 in 10.0 mi East 18.4 mph 24.2 mph 0.01 in Rain Light Rain
9:35 AM 64.4 °F - 59.0 °F 83% 29.85 in 10.0 mi ESE 15.0 mph - 0.01 in   Clear
9:55 AM 66.2 °F - 60.8 °F 83% 29.86 in 10.0 mi SE 8.1 mph - 0.01 in   Clear
10:15 AM 66.2 °F - 60.8 °F 83% 29.86 in 10.0 mi South 5.8 mph - N/A   Clear
10:35 AM 66.2 °F - 60.8 °F 83% 29.86 in 10.0 mi Calm Calm - N/A   Clear
10:55 AM 68.0 °F - 60.8 °F 78% 29.84 in 10.0 mi Calm Calm - N/A   Clear
11:15 AM 69.8 °F - 62.6 °F 78% 29.87 in 10.0 mi West 8.1 mph - N/A   Clear
11:35 AM 69.8 °F - 62.6 °F 78% 29.89 in 10.0 mi WSW 8.1 mph - N/A   Clear
11:55 AM 69.8 °F - 62.6 °F 78% 29.89 in 10.0 mi SW 6.9 mph - N/A   Clear
12:15 PM 71.6 °F - 62.6 °F 73% 29.89 in 10.0 mi SW 5.8 mph - N/A   Clear
12:35 PM 71.6 °F - 64.4 °F 78% 29.90 in 10.0 mi SW 6.9 mph - N/A   Clear
12:55 PM 73.4 °F - 64.4 °F 73% 29.89 in 10.0 mi SW 8.1 mph - N/A   Clear
1:15 PM 75.2 °F - 66.2 °F 73% 29.89 in 10.0 mi SW 6.9 mph - N/A   Clear
1:35 PM 78.8 °F - 66.2 °F 65% 29.90 in 10.0 mi SSW 9.2 mph - N/A   Clear
1:55 PM 78.8 °F - 68.0 °F 69% 29.90 in 10.0 mi SSW 10.4 mph - N/A   Clear
2:15 PM 78.8 °F - 69.8 °F 74% 29.90 in 10.0 mi South 6.9 mph - N/A   Scattered Clouds
2:35 PM 78.8 °F - 68.0 °F 69% 29.90 in 10.0 mi SSW 10.4 mph - N/A   Scattered Clouds
2:55 PM 80.6 °F 83.9 °F 69.8 °F 70% 29.90 in 10.0 mi SSW 6.9 mph - N/A   Scattered Clouds
3:15 PM 80.6 °F 83.9 °F 69.8 °F 70% 29.90 in 10.0 mi SW 6.9 mph - N/A   Scattered Clouds
3:35 PM 82.4 °F 86.3 °F 69.8 °F 66% 29.89 in 10.0 mi SW 9.2 mph - N/A   Scattered Clouds
3:55 PM 82.4 °F 87.2 °F 71.6 °F 70% 29.89 in 10.0 mi WSW 8.1 mph - N/A   Clear
4:15 PM 80.6 °F 84.6 °F 71.6 °F 74% 29.88 in 10.0 mi WSW 5.8 mph - N/A   Scattered Clouds
4:35 PM 82.4 °F 87.2 °F 71.6 °F 70% 29.88 in 10.0 mi WSW 4.6 mph - N/A   Scattered Clouds
4:55 PM 80.6 °F 84.6 °F 71.6 °F 74% 29.88 in 10.0 mi Calm Calm - N/A   Mostly Cloudy
5:15 PM 80.6 °F 84.6 °F 71.6 °F 74% 29.88 in 10.0 mi Calm Calm - N/A   Mostly Cloudy
5:35 PM 80.6 °F 84.6 °F 71.6 °F 74% 29.88 in 10.0 mi Calm Calm - N/A   Mostly Cloudy
5:55 PM 80.6 °F 84.6 °F 71.6 °F 74% 29.88 in 10.0 mi SE 3.5 mph - N/A   Mostly Cloudy
6:15 PM 80.6 °F 84.6 °F 71.6 °F 74% 29.88 in 10.0 mi SE 4.6 mph - N/A   Mostly Cloudy
6:35 PM 80.6 °F 84.6 °F 71.6 °F 74% 29.87 in 10.0 mi ESE 3.5 mph - N/A   Scattered Clouds
6:55 PM 80.6 °F 84.6 °F 71.6 °F 74% 29.86 in 10.0 mi East 3.5 mph - N/A   Scattered Clouds
7:15 PM 80.6 °F 84.6 °F 71.6 °F 74% 29.86 in 10.0 mi Calm Calm - N/A   Scattered Clouds
7:35 PM 80.6 °F 84.6 °F 71.6 °F 74% 29.87 in 10.0 mi Calm Calm - N/A Rain Light Rain
7:55 PM 78.8 °F - 69.8 °F 74% 29.87 in 10.0 mi ESE 5.8 mph - N/A   Overcast
8:15 PM 78.8 °F - 69.8 °F 74% 29.87 in 10.0 mi ESE 3.5 mph - N/A   Overcast
8:35 PM 77.0 °F - 69.8 °F 78% 29.88 in 10.0 mi East 5.8 mph - N/A   Mostly Cloudy
8:55 PM 77.0 °F - 69.8 °F 78% 29.89 in 10.0 mi East 6.9 mph - N/A   Mostly Cloudy
9:15 PM 75.2 °F - 69.8 °F 83% 29.89 in 10.0 mi ESE 6.9 mph - N/A   Mostly Cloudy
9:35 PM 75.2 °F - 68.0 °F 78% 29.90 in 10.0 mi East 6.9 mph - N/A   Scattered Clouds
9:55 PM 75.2 °F - 68.0 °F 78% 29.91 in 10.0 mi ESE 6.9 mph - N/A   Mostly Cloudy
10:15 PM 75.2 °F - 68.0 °F 78% 29.91 in 10.0 mi ESE 4.6 mph - N/A   Overcast
10:35 PM 75.2 °F - 68.0 °F 78% 29.91 in 10.0 mi SE 5.8 mph - N/A   Overcast
10:55 PM 75.2 °F - 68.0 °F 78% 29.91 in 10.0 mi ESE 3.5 mph - N/A   Overcast
11:15 PM 75.2 °F - 68.0 °F 78% 29.91 in 10.0 mi SE 4.6 mph - N/A   Overcast
11:35 PM 75.2 °F - 68.0 °F 78% 29.91 in 10.0 mi Calm Calm - N/A   Mostly Cloudy
11:55 PM 75.2 °F - 68.0 °F 78% 29.90 in 10.0 mi Calm Calm - N/A   Mostly Cloudy